sensor_id;sensor_type;location;lat;lon;timestamp;temperature;humidity
9095;DHT22;4583;49.796;9.902;2022-08-21T15:35:20;27.40;44.50
9095;DHT22;4583;49.796;9.902;2022-08-21T15:45:22;27.10;41.80
9095;DHT22;4583;49.796;9.902;2022-08-21T15:55:24;26.90;42.80
9095;DHT22;4583;49.796;9.902;2022-08-21T16:05:26;26.90;43.20
9095;DHT22;4583;49.796;9.902;2022-08-21T16:15:28;26.90;42.40
9095;DHT22;4583;49.796;9.902;2022-08-21T16:25:30;26.70;42.50
9095;DHT22;4583;49.796;9.902;2022-08-21T16:35:35;26.50;43.90
9095;DHT22;4583;49.796;9.902;2022-08-21T16:45:38;26.90;44.60
9095;DHT22;4583;49.796;9.902;2022-08-21T16:55:42;26.50;45.30
9095;DHT22;4583;49.796;9.902;2022-08-21T17:05:44;26.40;44.40
9095;DHT22;4583;49.796;9.902;2022-08-21T17:15:46;26.30;44.60
9095;DHT22;4583;49.796;9.902;2022-08-21T17:25:50;26.20;44.10
9095;DHT22;4583;49.796;9.902;2022-08-21T17:35:53;26.10;44.70
9095;DHT22;4583;49.796;9.902;2022-08-21T17:45:54;26.00;45.30
9095;DHT22;4583;49.796;9.902;2022-08-21T17:55:56;25.90;46.40
9095;DHT22;4583;49.796;9.902;2022-08-21T18:05:58;26.10;46.70
9095;DHT22;4583;49.796;9.902;2022-08-21T18:16:00;25.60;47.40
9095;DHT22;4583;49.796;9.902;2022-08-21T18:26:03;25.40;48.10
9095;DHT22;4583;49.796;9.902;2022-08-21T18:36:06;25.10;48.90
9095;DHT22;4583;49.796;9.902;2022-08-21T18:46:11;24.90;49.50
9095;DHT22;4583;49.796;9.902;2022-08-21T18:56:13;24.60;49.80
9095;DHT22;4583;49.796;9.902;2022-08-21T19:06:36;24.40;50.60
9095;DHT22;4583;49.796;9.902;2022-08-21T19:16:40;24.20;51.50
9095;DHT22;4583;49.796;9.902;2022-08-21T19:26:48;23.90;53.30
9095;DHT22;4583;49.796;9.902;2022-08-21T19:36:50;23.60;54.60
9095;DHT22;4583;49.796;9.902;2022-08-21T19:46:53;23.50;55.60
9095;DHT22;4583;49.796;9.902;2022-08-21T19:57:01;23.10;55.70
9095;DHT22;4583;49.796;9.902;2022-08-21T20:07:05;22.90;56.20
9095;DHT22;4583;49.796;9.902;2022-08-21T20:17:11;22.60;56.70
9095;DHT22;4583;49.796;9.902;2022-08-21T20:27:24;22.40;57.60
9095;DHT22;4583;49.796;9.902;2022-08-21T20:37:27;22.00;58.40
9095;DHT22;4583;49.796;9.902;2022-08-21T20:47:37;21.80;59.50
9095;DHT22;4583;49.796;9.902;2022-08-21T20:57:45;21.70;59.70
9095;DHT22;4583;49.796;9.902;2022-08-21T21:08:17;21.50;60.70
9095;DHT22;4583;49.796;9.902;2022-08-21T21:18:39;21.40;61.50
9095;DHT22;4583;49.796;9.902;2022-08-21T21:28:50;21.10;62.60
9095;DHT22;4583;49.796;9.902;2022-08-21T22:00:20;20.60;64.90
9095;DHT22;4583;49.796;9.902;2022-08-21T22:10:38;20.40;65.60
9095;DHT22;4583;49.796;9.902;2022-08-21T22:21:12;20.20;66.10
9095;DHT22;4583;49.796;9.902;2022-08-21T22:31:20;20.10;66.70
9095;DHT22;4583;49.796;9.902;2022-08-21T22:41:24;20.20;67.40
9095;DHT22;4583;49.796;9.902;2022-08-21T23:01:42;19.80;68.80
9095;DHT22;4583;49.796;9.902;2022-08-21T23:11:44;19.70;69.50
